Mary's Harbour, Canada
Current Conditions -  °F | °C
As of 11:00 AM on Friday 28 Nov 2014 (Local Time) from CYMH Reporting Station
Broken Clouds Broken Clouds  
Wind Chill:   Ceiling: 15000
Heat Index: 18°   Visibility: 15mi
Dew Point: 10°   Wind: 13mph
Humidity: 73%   Direction: 300°WNW
Pressure: 29.91"   Gusts: 20mph
Location:  52.31°N, 55.84°W
Report Text: CYMH 281500Z 30011G17KT 15SM SCT044 BKN150 BKN300 M08/M12 A2991 RMK SC4AC2CI1 SLP130
Loading
Personal Weather Stations






























Interactive Weather Map New forecast layout! Learn more

10-Day Weather Forecast

Advertisements
Track Severe Weather on mobile